Time;durP1;ratioP1;P1;durP2;ratioP2;P2;SDS_P1;SDS_P2;PMS_P1;PMS_P2;Temp;Humidity;BMP_temperature;BMP_pressure;BME280_temperature;BME280_humidity;BME280_pressure;Samples;Min_cycle;Max_cycle;Signal;HPM_P1;HPM_P2
2020/12/03 00:00:08;;;;;;;35.95;18.48;;;;;;;1.73;66.25;102026.45;1770036;80;21316;-60
2020/12/03 00:03:40;;;;;;;37.93;18.75;;;;;;;1.73;66.12;102033.20;1767180;80;21390;-60
2020/12/03 00:06:58;;;;;;;35.95;18.07;;;;;;;1.76;66.03;102031.69;1756220;80;22037;-60
2020/12/03 00:10:03;;;;;;;31.75;16.87;;;;;;;1.76;65.93;102023.09;1745590;81;21232;-60
2020/12/03 00:13:22;;;;;;;38.53;18.10;;;;;;;1.82;65.87;102026.84;1743377;81;21327;-60
2020/12/03 00:16:27;;;;;;;37.50;16.62;;;;;;;1.85;65.65;102026.69;1771690;78;21185;-60
2020/12/03 00:19:34;;;;;;;36.42;18.00;;;;;;;1.85;65.40;102016.35;1771084;80;21192;-60
2020/12/03 00:22:39;;;;;;;35.50;17.37;;;;;;;1.73;65.34;102025.10;1770489;80;21812;-59
2020/12/03 00:25:45;;;;;;;37.08;17.65;;;;;;;1.72;65.64;102024.69;1771245;80;21319;-59
2020/12/03 00:28:50;;;;;;;41.55;17.87;;;;;;;1.65;65.56;102020.58;1770895;81;21177;-59
2020/12/03 00:31:56;;;;;;;43.13;20.25;;;;;;;1.57;65.84;102032.24;1770550;80;21394;-59
2020/12/03 00:35:01;;;;;;;33.13;17.42;;;;;;;1.62;65.91;102027.48;1744852;81;21338;-59
2020/12/03 00:38:07;;;;;;;34.15;16.45;;;;;;;1.67;66.02;102017.30;1736099;82;21370;-59
2020/12/03 00:41:13;;;;;;;35.50;16.87;;;;;;;1.73;65.97;102015.66;1736189;82;21495;-59
2020/12/03 00:44:19;;;;;;;30.40;17.15;;;;;;;1.77;65.82;102028.02;1736329;82;21323;-60
2020/12/03 00:47:31;;;;;;;33.95;15.98;;;;;;;1.79;65.83;102030.17;1736713;82;21370;-59
2020/12/03 00:50:36;;;;;;;39.58;17.70;;;;;;;1.86;65.74;102041.03;1736006;82;21467;-59
2020/12/03 00:53:44;;;;;;;38.28;17.57;;;;;;;1.85;65.32;102049.63;1736121;82;21721;-59
2020/12/03 00:56:50;;;;;;;37.23;17.87;;;;;;;1.81;65.40;102056.63;1736073;82;21358;-59
2020/12/03 00:59:57;;;;;;;30.60;16.57;;;;;;;1.84;65.44;102055.96;1770418;81;21334;-60
2020/12/03 01:03:03;;;;;;;36.13;17.62;;;;;;;1.84;65.27;102047.86;1770998;81;21337;-60
2020/12/03 01:06:09;;;;;;;34.30;18.10;;;;;;;1.81;65.35;102047.17;1771462;81;21366;-59
2020/12/03 01:09:15;;;;;;;35.40;17.77;;;;;;;1.82;65.37;102038.99;1771475;81;21308;-60
2020/12/03 01:12:22;;;;;;;40.65;18.00;;;;;;;1.84;65.32;102042.97;1771452;80;21381;-58
2020/12/03 01:15:27;;;;;;;36.63;18.67;;;;;;;1.85;65.19;102032.55;1772976;80;21367;-61
2020/12/03 01:18:33;;;;;;;41.35;17.98;;;;;;;1.84;65.40;102032.16;1772798;81;21304;-59
2020/12/03 01:21:38;;;;;;;44.15;19.50;;;;;;;1.91;65.42;102035.80;1773010;80;21351;-59
2020/12/03 01:24:43;;;;;;;38.58;18.20;;;;;;;1.90;65.32;102039.94;1773045;80;21335;-59
2020/12/03 01:27:48;;;;;;;38.73;16.85;;;;;;;1.91;65.50;102038.50;1773192;80;21311;-60
2020/12/03 01:30:54;;;;;;;30.72;16.30;;;;;;;1.99;65.61;102031.34;1772911;80;21319;-59
2020/12/03 01:33:59;;;;;;;37.15;16.90;;;;;;;2.04;65.41;102018.47;1774073;80;21276;-59
2020/12/03 01:37:07;;;;;;;36.58;17.05;;;;;;;2.04;65.36;102024.75;1773395;80;21228;-59
2020/12/03 01:40:15;;;;;;;37.73;18.52;;;;;;;2.10;65.28;102027.13;1773329;80;21319;-59
2020/12/03 01:43:21;;;;;;;34.00;17.10;;;;;;;2.04;65.01;102011.72;1773443;80;21428;-59
2020/12/03 01:46:26;;;;;;;34.95;17.60;;;;;;;1.98;65.08;102018.34;1773194;80;21366;-58
2020/12/03 01:49:35;;;;;;;36.38;17.65;;;;;;;1.90;65.19;102012.47;1773320;80;21201;-59
2020/12/03 01:52:41;;;;;;;32.15;17.73;;;;;;;1.89;65.43;102009.85;1773181;80;21299;-59
2020/12/03 01:55:46;;;;;;;35.30;17.32;;;;;;;1.94;65.55;102004.59;1773291;80;21430;-60
2020/12/03 01:58:53;;;;;;;35.48;15.83;;;;;;;2.01;65.50;102010.53;1773249;80;21354;-60
2020/12/03 02:01:58;;;;;;;37.53;17.73;;;;;;;2.04;65.44;102003.61;1773177;80;21374;-59
2020/12/03 02:05:27;;;;;;;33.30;17.10;;;;;;;2.10;65.42;102003.28;1773234;80;21399;-60
2020/12/03 02:08:33;;;;;;;33.80;16.87;;;;;;;2.15;65.35;102005.26;1773471;80;21339;-60
2020/12/03 02:11:40;;;;;;;30.88;16.80;;;;;;;2.17;65.13;102026.32;1772999;81;21256;-60
2020/12/03 02:14:46;;;;;;;35.58;18.60;;;;;;;2.19;65.19;102013.61;1773204;80;21386;-59
2020/12/03 02:17:52;;;;;;;34.63;16.93;;;;;;;2.22;65.13;102017.50;1770480;79;21335;-59
2020/12/03 02:21:03;;;;;;;37.45;17.42;;;;;;;2.16;64.76;102012.39;1771602;81;21217;-59
2020/12/03 02:24:07;;;;;;;31.90;16.60;;;;;;;2.06;65.06;102017.42;1771467;81;21189;-60
2020/12/03 02:27:15;;;;;;;35.45;17.42;;;;;;;2.10;65.29;102019.48;1771610;80;21174;-59
2020/12/03 02:30:23;;;;;;;26.23;14.60;;;;;;;2.13;65.22;102015.27;1771393;81;21336;-60
2020/12/03 02:33:29;;;;;;;34.98;17.77;;;;;;;2.15;65.33;102012.90;1771479;81;21225;-59
2020/12/03 02:36:35;;;;;;;33.18;16.57;;;;;;;2.19;65.27;102010.91;1771533;80;21335;-59
2020/12/03 02:39:42;;;;;;;35.83;16.90;;;;;;;2.20;65.28;102008.12;1772177;80;21331;-59
2020/12/03 02:42:48;;;;;;;34.38;16.32;;;;;;;2.27;65.23;102004.58;1771470;81;21256;-59
2020/12/03 02:45:55;;;;;;;34.60;17.77;;;;;;;2.30;65.12;102004.45;1771297;80;21200;-60
2020/12/03 02:49:01;;;;;;;33.80;16.65;;;;;;;2.29;64.95;102012.13;1771837;80;21284;-60
2020/12/03 02:52:07;;;;;;;38.23;16.97;;;;;;;2.30;65.04;102001.74;1771100;80;21178;-60
2020/12/03 02:55:14;;;;;;;37.23;17.40;;;;;;;2.31;65.02;101993.55;1771508;81;21208;-60
2020/12/03 02:58:21;;;;;;;33.33;16.05;;;;;;;2.33;64.95;101992.11;1771495;81;21240;-59
2020/12/03 03:01:26;;;;;;;32.63;17.10;;;;;;;2.29;65.04;101987.34;1771536;81;21339;-59
2020/12/03 03:04:33;;;;;;;36.40;17.70;;;;;;;2.32;64.99;101990.34;1771369;81;21170;-59
2020/12/03 03:07:39;;;;;;;36.00;17.02;;;;;;;2.32;64.95;101988.53;1748964;81;21347;-60
2020/12/03 03:10:46;;;;;;;36.33;17.82;;;;;;;2.33;64.87;101995.66;1732064;82;21247;-60
2020/12/03 03:13:52;;;;;;;32.30;16.67;;;;;;;2.36;64.98;101998.70;1732716;82;21358;-60
2020/12/03 03:16:58;;;;;;;33.45;15.40;;;;;;;2.38;64.93;101994.09;1732060;83;21404;-60
2020/12/03 03:20:03;;;;;;;31.52;15.93;;;;;;;2.37;64.75;101988.27;1725582;79;21333;-60
2020/12/03 03:23:09;;;;;;;31.42;16.50;;;;;;;2.29;64.75;101987.81;1721392;83;21304;-60
2020/12/03 03:26:15;;;;;;;29.92;15.68;;;;;;;2.30;64.90;101995.84;1721349;83;21254;-58
2020/12/03 03:29:22;;;;;;;32.90;15.23;;;;;;;2.29;64.91;101991.41;1721386;83;21275;-58
2020/12/03 03:32:27;;;;;;;34.45;17.17;;;;;;;2.32;64.96;101989.87;1721364;83;21289;-58
2020/12/03 03:35:33;;;;;;;28.47;14.40;;;;;;;2.31;64.68;102010.23;1721210;83;21196;-58
2020/12/03 03:38:39;;;;;;;30.50;15.30;;;;;;;2.25;64.76;102010.58;1721379;83;21201;-58
2020/12/03 03:41:44;;;;;;;28.98;13.65;;;;;;;2.26;64.90;102010.95;1721356;83;21181;-58
2020/12/03 03:44:50;;;;;;;27.98;13.88;;;;;;;2.31;64.89;102010.23;1721364;83;21370;-57
2020/12/03 03:47:55;;;;;;;29.52;13.70;;;;;;;2.34;64.81;101998.78;1721314;83;21272;-58
2020/12/03 03:51:02;;;;;;;28.17;14.43;;;;;;;2.39;64.79;102002.11;1721172;83;21220;-57
2020/12/03 03:54:08;;;;;;;25.05;12.68;;;;;;;2.41;64.61;102002.87;1721145;83;21260;-58
2020/12/03 03:57:14;;;;;;;27.00;14.13;;;;;;;2.45;64.56;102002.23;1721362;83;21232;-58
2020/12/03 04:00:23;;;;;;;24.95;13.45;;;;;;;2.50;64.39;102006.91;1721359;83;21396;-59
2020/12/03 04:03:29;;;;;;;30.32;14.95;;;;;;;2.42;64.28;102001.94;1721351;83;21170;-58
2020/12/03 04:06:34;;;;;;;23.92;13.58;;;;;;;2.40;64.40;102002.96;1727016;81;21291;-58
2020/12/03 04:09:40;;;;;;;27.80;13.98;;;;;;;2.43;64.38;101993.33;1766405;81;21189;-58
2020/12/03 04:12:47;;;;;;;26.77;14.40;;;;;;;2.41;64.37;101989.86;1766421;81;21177;-57
2020/12/03 04:15:53;;;;;;;31.00;15.60;;;;;;;2.42;64.28;102007.81;1766459;81;21244;-58
2020/12/03 04:18:59;;;;;;;26.70;14.60;;;;;;;2.41;64.37;102004.73;1766371;81;21447;-57
2020/12/03 04:22:04;;;;;;;27.42;14.43;;;;;;;2.38;64.39;101998.14;1771879;80;21296;-58
2020/12/03 04:25:10;;;;;;;32.48;14.75;;;;;;;2.34;64.48;101999.25;1771720;80;21365;-57
2020/12/03 04:28:16;;;;;;;33.30;15.38;;;;;;;2.34;64.64;101996.55;1771825;81;21335;-57
2020/12/03 04:31:22;;;;;;;31.15;15.43;;;;;;;2.28;64.63;101986.97;1772124;80;21233;-58
2020/12/03 04:34:28;;;;;;;34.10;15.98;;;;;;;2.18;64.68;102001.04;1771885;81;21332;-59
2020/12/03 04:37:33;;;;;;;31.37;15.08;;;;;;;2.11;65.19;101991.54;1771863;81;21375;-58
2020/12/03 04:40:42;;;;;;;33.45;17.15;;;;;;;2.19;65.34;102002.81;1771868;81;21347;-59
2020/12/03 04:43:51;;;;;;;32.05;16.12;;;;;;;2.23;65.36;101993.09;1772241;80;21184;-57
2020/12/03 04:47:09;;;;;;;35.28;16.00;;;;;;;2.30;65.32;101997.69;1764728;81;21362;-58
2020/12/03 04:50:33;;;;;;;35.25;16.15;;;;;;;2.19;65.15;102001.45;1772310;80;21312;-59
2020/12/03 04:54:03;;;;;;;34.67;15.95;;;;;;;2.15;65.57;102002.09;1771869;81;21319;-59
2020/12/03 04:57:32;;;;;;;35.28;16.48;;;;;;;2.14;65.58;101999.47;1771709;81;21339;-59
2020/12/03 05:01:05;;;;;;;33.78;17.12;;;;;;;2.15;65.74;102005.26;1772056;80;21418;-59
2020/12/03 05:04:17;;;;;;;39.78;19.87;;;;;;;2.20;65.76;101994.62;1771829;81;21251;-58
2020/12/03 05:07:23;;;;;;;45.13;21.60;;;;;;;2.21;65.92;101988.72;1758898;80;21313;-58
2020/12/03 05:10:48;;;;;;;43.98;18.75;;;;;;;2.28;65.87;101987.44;1743521;81;21357;-58
2020/12/03 05:13:56;;;;;;;51.15;25.57;;;;;;;2.33;65.80;101984.02;1772115;80;21181;-57
2020/12/03 05:17:05;;;;;;;41.92;20.62;;;;;;;2.34;65.67;101984.39;1773441;80;21638;-57
2020/12/03 05:20:49;;;;;;;37.93;19.07;;;;;;;2.36;65.82;101988.73;1773330;80;21718;-57
2020/12/03 05:23:54;;;;;;;45.55;20.45;;;;;;;2.38;65.69;101996.80;1773389;80;21301;-59
2020/12/03 05:27:00;;;;;;;39.48;19.37;;;;;;;2.38;65.76;101998.14;1773837;80;21189;-58
2020/12/03 05:30:10;;;;;;;45.40;20.27;;;;;;;2.39;65.59;101998.05;1773180;80;21244;-58
2020/12/03 05:33:16;;;;;;;49.90;19.52;;;;;;;2.26;65.68;102001.03;1773870;80;21323;-59
2020/12/03 05:36:31;;;;;;;42.20;20.80;;;;;;;2.24;65.92;102003.41;1749413;80;21397;-59
2020/12/03 05:39:43;;;;;;;51.75;20.25;;;;;;;2.26;65.95;102005.08;1742671;82;21692;-59
2020/12/03 05:42:51;;;;;;;45.35;19.62;;;;;;;2.32;65.90;102006.09;1740057;82;21188;-58
2020/12/03 05:45:56;;;;;;;47.85;20.32;;;;;;;2.36;65.85;102001.41;1755949;81;21204;-59
2020/12/03 05:49:10;;;;;;;43.75;19.55;;;;;;;2.38;65.78;102000.84;1763847;80;21165;-59
2020/12/03 05:52:30;;;;;;;66.82;25.72;;;;;;;2.33;65.75;101998.88;1772059;80;21221;-59
2020/12/03 05:55:36;;;;;;;82.42;32.63;;;;;;;2.35;65.97;101996.93;1772805;80;21200;-60
2020/12/03 05:58:41;;;;;;;58.15;23.90;;;;;;;2.39;65.89;101999.87;1772837;80;21281;-60
2020/12/03 06:01:48;;;;;;;57.45;22.70;;;;;;;2.45;65.94;102002.23;1770471;80;21975;-59
2020/12/03 06:05:04;;;;;;;63.00;23.42;;;;;;;2.51;65.89;101996.48;1753416;81;21227;-59
2020/12/03 06:08:30;;;;;;;60.48;26.50;;;;;;;2.54;65.82;101997.19;1767404;81;21585;-59
2020/12/03 06:11:51;;;;;;;94.75;37.63;;;;;;;2.53;65.72;102001.33;1760841;80;21405;-59
2020/12/03 06:15:38;;;;;;;55.48;22.20;;;;;;;2.56;65.67;102013.32;1771410;81;21398;-59
2020/12/03 06:19:07;;;;;;;57.10;23.12;;;;;;;2.55;65.61;102014.29;1754433;80;21761;-58
2020/12/03 06:22:53;;;;;;;82.72;40.67;;;;;;;2.58;65.55;102010.06;1741821;81;21209;-59
2020/12/03 06:26:15;;;;;;;58.60;26.80;;;;;;;2.58;65.60;102008.24;1754885;81;21437;-56
2020/12/03 06:29:44;;;;;;;61.55;26.55;;;;;;;2.60;65.56;102002.75;1759923;80;21701;-56
2020/12/03 06:32:56;;;;;;;59.33;28.38;;;;;;;2.60;65.42;101996.84;1754304;81;21339;-56
2020/12/03 06:36:40;;;;;;;46.53;19.92;;;;;;;2.62;65.50;101998.11;1704536;83;21236;-55
2020/12/03 06:40:05;;;;;;;45.93;19.67;;;;;;;2.67;65.50;102002.31;1734284;81;21386;-56
2020/12/03 06:43:33;;;;;;;44.50;19.23;;;;;;;2.73;65.38;102003.31;1766628;80;21367;-56
2020/12/03 06:47:05;;;;;;;58.92;23.83;;;;;;;2.72;64.99;102004.75;1762641;81;21936;-56
2020/12/03 06:50:38;;;;;;;40.23;18.12;;;;;;;2.68;65.20;102011.30;1773034;80;21355;-56
2020/12/03 06:54:33;;;;;;;43.35;18.27;;;;;;;2.69;65.17;102015.74;1760621;80;21336;-57
2020/12/03 06:57:57;;;;;;;;;;;;;;;2.72;65.02;102022.33;1696719;83;21172;-55
2020/12/03 07:01:10;;;;;;;;;;;;;;;2.62;65.12;102037.30;1743291;81;20267;-58
2020/12/03 07:04:58;;;;;;;43.68;19.48;;;;;;;2.55;65.25;102038.62;1740823;82;20524;-56
2020/12/03 07:08:31;;;;;;;41.23;17.07;;;;;;;2.50;65.42;102035.29;1751545;80;21448;-55
2020/12/03 07:11:58;;;;;;;48.33;18.20;;;;;;;2.54;65.57;102036.84;1757424;81;21864;-56
2020/12/03 07:15:32;;;;;;;50.60;19.75;;;;;;;2.60;65.54;102036.54;1755603;80;21894;-55
2020/12/03 07:19:23;;;;;;;55.30;24.18;;;;;;;2.63;65.45;102030.45;1766064;81;21319;-56
2020/12/03 07:22:49;;;;;;;50.00;22.48;;;;;;;2.57;65.31;102029.95;1771345;80;21374;-56
2020/12/03 07:25:58;;;;;;;48.58;19.67;;;;;;;2.41;65.58;102037.16;1709711;82;21216;-56
2020/12/03 07:29:03;;;;;;;45.12;19.07;;;;;;;2.42;65.73;102025.38;1722828;82;21911;-56
2020/12/03 07:32:09;;;;;;;46.63;20.10;;;;;;;2.44;65.77;102022.12;1735094;82;21255;-56
2020/12/03 07:35:42;;;;;;;40.67;18.48;;;;;;;2.48;65.71;102022.33;1718105;82;21256;-56
2020/12/03 07:38:53;;;;;;;;;;;;;;;2.51;65.76;102019.45;1737079;82;21212;-56
2020/12/03 07:42:05;;;;;;;43.40;17.30;;;;;;;2.54;65.71;102014.76;1723264;82;20808;-56
2020/12/03 07:45:32;;;;;;;46.00;19.07;;;;;;;2.60;65.77;102020.32;1713798;82;21260;-56
2020/12/03 07:48:52;;;;;;;39.35;17.45;;;;;;;2.67;65.53;102024.41;1712320;82;21244;-57
2020/12/03 07:52:31;;;;;;;46.13;17.70;;;;;;;2.69;65.37;102026.55;1729461;82;21361;-55
2020/12/03 07:55:39;;;;;;;37.85;17.80;;;;;;;2.77;65.53;102032.41;1722559;82;21221;-56
2020/12/03 07:58:46;;;;;;;46.60;20.45;;;;;;;2.83;65.12;102026.64;1724673;82;21221;-55
2020/12/03 08:01:56;;;;;;;48.10;19.75;;;;;;;2.86;65.12;102021.95;1722426;82;21871;-55
2020/12/03 08:05:03;;;;;;;38.13;16.37;;;;;;;2.89;64.92;102027.64;1704469;84;21370;-55
2020/12/03 08:08:09;;;;;;;38.67;17.42;;;;;;;2.88;64.93;102025.91;1728546;82;21606;-56
2020/12/03 08:11:55;;;;;;;36.58;17.45;;;;;;;2.90;64.97;102017.24;1735739;82;21393;-56
2020/12/03 08:15:07;;;;;;;36.75;17.15;;;;;;;2.94;64.79;102016.98;1720427;82;21426;-56
2020/12/03 08:18:12;;;;;;;40.00;17.75;;;;;;;3.03;64.76;102015.55;1677363;83;21949;-56
2020/12/03 08:21:20;;;;;;;41.50;19.25;;;;;;;3.13;64.44;102017.25;1702544;82;21415;-55
2020/12/03 08:24:38;;;;;;;41.58;17.73;;;;;;;3.18;64.38;102020.56;1744136;79;21268;-55
2020/12/03 08:27:43;;;;;;;36.75;16.70;;;;;;;3.18;63.80;102020.09;1762184;80;21174;-56
2020/12/03 08:30:53;;;;;;;39.10;17.70;;;;;;;3.15;63.55;102027.05;1767483;80;21417;-56
2020/12/03 08:34:01;;;;;;;36.63;17.12;;;;;;;3.13;63.65;102011.84;1771025;80;21335;-55
2020/12/03 08:37:11;;;;;;;36.13;17.77;;;;;;;3.20;63.75;102002.42;1758237;81;21200;-55
2020/12/03 08:40:17;;;;;;;37.42;16.93;;;;;;;3.36;63.44;102006.86;1762406;81;21337;-55
2020/12/03 08:43:23;;;;;;;38.40;18.55;;;;;;;3.44;63.15;102005.05;1769601;80;21188;-54
2020/12/03 08:46:28;;;;;;;34.55;15.70;;;;;;;3.50;63.15;101990.66;1753949;80;21214;-56
2020/12/03 08:49:34;;;;;;;34.00;16.05;;;;;;;3.60;62.85;101981.00;1752022;81;21267;-58
2020/12/03 08:52:40;;;;;;;33.83;17.17;;;;;;;3.65;62.48;101991.55;1677705;83;21295;-58
2020/12/03 08:55:49;;;;;;;33.15;16.40;;;;;;;3.69;62.37;101986.36;1704485;84;21284;-57
2020/12/03 08:59:16;;;;;;;50.48;28.07;;;;;;;3.65;62.21;101989.72;1713581;83;21297;-58
2020/12/03 09:02:27;;;;;;;34.80;16.62;;;;;;;3.69;62.11;101984.53;1704992;83;21276;-58
2020/12/03 09:05:41;;;;;;;34.03;16.37;;;;;;;3.68;61.63;101989.53;1714993;83;21382;-58
2020/12/03 09:08:53;;;;;;;31.68;15.70;;;;;;;3.55;61.75;101992.59;1696749;83;21810;-55
2020/12/03 09:12:00;;;;;;;29.48;15.45;;;;;;;3.53;62.04;101980.12;1702822;83;21267;-55
2020/12/03 09:15:12;;;;;;;29.40;14.90;;;;;;;3.54;62.11;101985.44;1754923;81;21366;-56
2020/12/03 09:18:18;;;;;;;39.53;18.48;;;;;;;3.58;61.90;101986.13;1761098;81;21170;-57
2020/12/03 09:21:38;;;;;;;35.90;16.00;;;;;;;3.45;61.74;101989.18;1755729;80;21336;-57
2020/12/03 09:24:45;;;;;;;30.80;15.48;;;;;;;3.41;62.07;101993.05;1754030;80;21283;-56
2020/12/03 09:27:57;;;;;;;28.07;16.52;;;;;;;3.45;62.09;101992.77;1736654;82;21827;-56
2020/12/03 09:31:02;;;;;;;30.97;15.85;;;;;;;3.45;62.15;101995.47;1741582;82;21600;-56
2020/12/03 09:34:07;;;;;;;30.40;16.60;;;;;;;3.47;62.06;101992.20;1740693;82;21203;-54
2020/12/03 09:37:13;;;;;;;32.83;16.50;;;;;;;3.48;62.08;101984.93;1768585;81;21333;-55
2020/12/03 09:40:18;;;;;;;25.92;14.65;;;;;;;3.42;62.07;101989.36;1772369;80;21698;-55
2020/12/03 09:43:25;;;;;;;28.55;15.08;;;;;;;3.29;62.22;101987.87;1772521;80;21220;-55
2020/12/03 09:46:34;;;;;;;30.95;14.20;;;;;;;3.22;62.46;101987.83;1773083;80;21220;-55
2020/12/03 09:49:44;;;;;;;33.67;15.95;;;;;;;3.28;62.57;101984.78;1742493;81;21848;-55
2020/12/03 09:52:50;;;;;;;30.30;13.80;;;;;;;3.33;62.71;101975.88;1742669;82;21713;-56
2020/12/03 09:55:55;;;;;;;28.20;15.08;;;;;;;3.39;62.50;101982.78;1769366;80;21237;-55
2020/12/03 09:59:07;;;;;;;27.55;14.55;;;;;;;3.38;62.45;101981.90;1772323;80;21205;-55
2020/12/03 10:02:24;;;;;;;29.00;14.60;;;;;;;3.46;62.59;101978.26;1742013;82;21358;-54
2020/12/03 10:05:50;;;;;;;26.27;13.85;;;;;;;3.59;62.31;101971.14;1756158;80;21410;-55
2020/12/03 10:09:28;;;;;;;33.53;15.48;;;;;;;3.65;62.12;101973.48;1712944;82;21259;-55
2020/12/03 10:12:50;;;;;;;27.93;14.25;;;;;;;3.62;61.72;101978.20;1769477;81;21217;-55
2020/12/03 10:16:09;;;;;;;34.38;15.60;;;;;;;3.58;62.01;101965.83;1754954;81;21276;-56
2020/12/03 10:19:17;;;;;;;44.05;25.43;;;;;;;3.70;61.84;101966.42;1740972;82;21334;-56
2020/12/03 10:22:34;;;;;;;50.25;31.73;;;;;;;3.74;61.69;101963.42;1766103;81;21193;-56
2020/12/03 10:25:40;;;;;;;29.80;16.37;;;;;;;3.80;61.80;101964.44;1772249;80;21522;-55
2020/12/03 10:28:56;;;;;;;31.25;15.25;;;;;;;3.83;61.34;101966.95;1766975;81;21239;-56
2020/12/03 10:32:04;;;;;;;28.47;14.15;;;;;;;3.75;61.37;101954.36;1766920;81;21226;-56
2020/12/03 10:35:11;;;;;;;28.25;14.33;;;;;;;3.64;61.56;101951.44;1767568;81;21479;-56
2020/12/03 10:38:24;;;;;;;29.80;13.75;;;;;;;3.65;61.90;101953.64;1767675;81;21236;-55
2020/12/03 10:41:30;;;;;;;29.37;15.65;;;;;;;3.66;61.93;101949.52;1767317;81;21184;-57
2020/12/03 10:44:39;;;;;;;29.75;14.85;;;;;;;3.75;61.90;101954.36;1767957;81;21362;-55
2020/12/03 10:47:55;;;;;;;30.57;15.13;;;;;;;3.81;61.96;101951.73;1767669;81;21362;-55
2020/12/03 10:51:07;;;;;;;34.67;15.45;;;;;;;3.79;61.92;101953.19;1767197;81;21362;-55
2020/12/03 10:54:12;;;;;;;37.85;17.92;;;;;;;3.85;62.09;101952.84;1767358;81;21387;-58
2020/12/03 10:57:29;;;;;;;31.50;16.70;;;;;;;3.90;61.90;101950.69;1766530;81;21259;-57
2020/12/03 11:00:36;;;;;;;32.90;17.23;;;;;;;3.92;61.71;101947.41;1766260;81;21196;-57
2020/12/03 11:03:44;;;;;;;33.00;16.15;;;;;;;3.91;61.68;101940.26;1672959;86;21244;-56
2020/12/03 11:06:50;;;;;;;29.77;14.45;;;;;;;3.95;61.62;101937.73;1686619;83;21372;-56
2020/12/03 11:10:00;;;;;;;31.00;15.03;;;;;;;3.89;61.59;101927.28;1757556;81;21206;-57
2020/12/03 11:13:10;;;;;;;31.20;14.98;;;;;;;3.92;61.55;101938.40;1758389;81;21556;-56
2020/12/03 11:16:14;;;;;;;24.92;13.03;;;;;;;3.96;61.36;101930.02;1755688;80;21223;-57
2020/12/03 11:19:22;;;;;;;30.80;15.35;;;;;;;3.96;61.25;101930.02;1705429;83;21252;-57
2020/12/03 11:22:45;;;;;;;35.03;16.42;;;;;;;3.95;61.22;101927.36;1700084;84;21359;-56
2020/12/03 11:25:52;;;;;;;27.80;15.53;;;;;;;3.96;61.36;101916.47;1736355;82;21598;-56
2020/12/03 11:28:56;;;;;;;31.87;15.38;;;;;;;4.01;61.38;101920.23;1755189;79;21192;-55
2020/12/03 11:32:03;;;;;;;32.98;16.17;;;;;;;4.08;61.29;101915.68;1767226;81;21220;-56
2020/12/03 11:35:08;;;;;;;29.12;17.00;;;;;;;4.11;61.09;101910.53;1748111;81;21751;-57
2020/12/03 11:38:13;;;;;;;26.62;13.98;;;;;;;4.02;61.25;101916.08;1767316;81;21184;-57
2020/12/03 11:48:06;;;;;;;36.45;17.60;;;;;;;4.01;61.03;101917.02;1739179;82;21219;-56
2020/12/03 11:50:57;;;;;;;26.05;15.08;;;;;;;3.99;61.15;101922.16;1738789;82;21236;-56
2020/12/03 11:54:08;;;;;;;28.00;15.05;;;;;;;3.97;60.94;101914.13;1739540;82;21288;-56
2020/12/03 11:57:16;;;;;;;27.95;15.45;;;;;;;3.95;61.07;101911.99;1768363;80;21252;-55
2020/12/03 12:00:30;;;;;;;26.80;14.05;;;;;;;3.91;61.10;101914.52;1769248;81;21299;-58
2020/12/03 12:03:39;;;;;;;27.55;13.80;;;;;;;3.90;61.14;101915.47;1750010;80;21192;-58
2020/12/03 12:06:46;;;;;;;27.60;13.50;;;;;;;3.92;61.15;101909.95;1745976;81;21757;-58
2020/12/03 12:10:02;;;;;;;30.20;15.43;;;;;;;3.83;61.21;101907.36;1770885;81;21221;-58
2020/12/03 12:13:00;;;;;;;24.63;13.40;;;;;;;3.83;61.47;101902.41;1752101;80;21196;-57
2020/12/03 12:16:07;;;;;;;28.77;13.85;;;;;;;3.87;61.59;101902.62;1755627;80;21280;-58
2020/12/03 12:19:23;;;;;;;26.73;13.75;;;;;;;3.89;61.54;101911.03;1756845;81;21911;-57
2020/12/03 12:22:28;;;;;;;24.70;13.45;;;;;;;3.87;61.54;101907.54;1751619;81;21781;-60
2020/12/03 12:25:34;;;;;;;25.85;13.10;;;;;;;3.82;61.51;101905.59;1761993;80;21209;-58
2020/12/03 12:28:39;;;;;;;27.98;14.58;;;;;;;3.79;61.69;101909.85;1756596;81;21290;-58
2020/12/03 12:31:44;;;;;;;30.48;14.65;;;;;;;3.79;61.74;101905.79;1754096;80;21213;-59
2020/12/03 12:34:52;;;;;;;27.00;14.50;;;;;;;3.69;61.71;101912.77;1757363;81;21213;-57
2020/12/03 12:38:00;;;;;;;32.17;15.65;;;;;;;3.59;62.05;101910.23;1759179;80;21156;-59
2020/12/03 12:41:06;;;;;;;31.55;15.60;;;;;;;3.61;62.34;101907.42;1753318;81;21752;-61
2020/12/03 12:44:10;;;;;;;37.83;18.40;;;;;;;3.63;62.51;101921.75;1759489;81;21288;-60
2020/12/03 12:47:15;;;;;;;34.63;16.97;;;;;;;3.65;62.47;101911.67;1739111;82;21259;-59
2020/12/03 12:50:22;;;;;;;33.00;17.57;;;;;;;3.56;62.73;101910.42;1738446;82;21325;-60
2020/12/03 12:53:27;;;;;;;36.42;18.82;;;;;;;3.60;62.88;101916.02;1738756;82;21196;-60
2020/12/03 12:56:33;;;;;;;34.33;17.70;;;;;;;3.65;62.88;101918.44;1740634;81;21216;-60
2020/12/03 12:59:39;;;;;;;30.40;16.52;;;;;;;3.57;62.78;101913.50;1753653;81;21197;-59
2020/12/03 13:02:44;;;;;;;26.55;14.40;;;;;;;3.58;62.99;101922.51;1755169;81;21766;-61
2020/12/03 13:05:49;;;;;;;30.57;15.58;;;;;;;3.55;63.01;101915.93;1765888;81;21213;-59
2020/12/03 13:08:55;;;;;;;29.50;15.63;;;;;;;3.51;63.09;101919.30;1767715;80;21756;-61
2020/12/03 13:12:01;;;;;;;29.07;14.87;;;;;;;3.50;63.26;101928.40;1756671;80;21184;-57
2020/12/03 13:15:06;;;;;;;26.60;14.18;;;;;;;3.47;63.31;101925.00;1697577;82;21264;-57
2020/12/03 13:18:13;;;;;;;27.00;15.18;;;;;;;3.44;63.51;101931.45;1695935;83;21233;-58
2020/12/03 13:21:19;;;;;;;31.40;14.90;;;;;;;3.46;63.63;101932.70;1707014;83;21217;-58
2020/12/03 13:24:28;;;;;;;28.35;15.95;;;;;;;3.46;63.70;101924.12;1723293;82;21699;-57
2020/12/03 13:27:33;;;;;;;31.45;15.78;;;;;;;3.52;63.77;101929.66;1718684;82;21363;-58
2020/12/03 13:30:39;;;;;;;27.37;14.25;;;;;;;3.57;63.60;101939.73;1708306;82;21207;-57
2020/12/03 13:33:44;;;;;;;33.02;15.72;;;;;;;3.54;63.48;101932.64;1762545;80;21181;-58
2020/12/03 13:36:49;;;;;;;33.53;16.93;;;;;;;3.42;63.56;101927.11;1759891;80;21298;-57
2020/12/03 13:39:54;;;;;;;34.08;15.83;;;;;;;3.43;63.87;101915.30;1768671;80;21523;-57
2020/12/03 13:43:01;;;;;;;49.53;29.25;;;;;;;3.46;64.00;101916.00;1768044;80;21268;-56
2020/12/03 13:46:20;;;;;;;38.33;18.45;;;;;;;3.42;64.04;101910.39;1770162;80;21275;-57
2020/12/03 13:49:28;;;;;;;31.85;16.35;;;;;;;3.45;64.17;101919.67;1756147;80;21669;-58
2020/12/03 13:52:34;;;;;;;33.63;16.67;;;;;;;3.48;64.15;101916.78;1768003;80;21840;-57
2020/12/03 13:55:39;;;;;;;32.95;15.68;;;;;;;3.52;64.19;101914.26;1769281;80;21212;-57
2020/12/03 13:58:45;;;;;;;32.88;15.85;;;;;;;3.59;64.13;101908.88;1770214;80;21189;-58
2020/12/03 14:01:50;;;;;;;30.80;15.72;;;;;;;3.59;63.98;101907.52;1769261;80;21418;-58
2020/12/03 14:04:56;;;;;;;48.63;30.25;;;;;;;3.54;64.09;101908.75;1763472;80;21212;-58
2020/12/03 14:08:13;;;;;;;35.28;17.70;;;;;;;3.52;64.15;101912.91;1759523;80;21213;-58
2020/12/03 14:11:19;;;;;;;32.95;17.37;;;;;;;3.51;64.13;101927.89;1740721;82;21235;-58
2020/12/03 14:14:26;;;;;;;30.45;16.35;;;;;;;3.52;64.23;101923.73;1767890;80;21856;-58
2020/12/03 14:17:32;;;;;;;34.27;17.48;;;;;;;3.55;64.16;101923.55;1770325;81;21189;-57
2020/12/03 14:20:38;;;;;;;31.42;15.63;;;;;;;3.59;64.18;101925.13;1770098;80;21220;-58
2020/12/03 14:23:44;;;;;;;33.25;16.45;;;;;;;3.65;64.12;101917.09;1767851;80;21216;-57
2020/12/03 14:27:07;;;;;;;30.95;16.60;;;;;;;3.62;63.81;101914.57;1765299;80;21434;-58
2020/12/03 14:30:23;;;;;;;30.12;16.67;;;;;;;3.47;64.01;101921.81;1759696;80;21253;-58
2020/12/03 14:33:30;;;;;;;29.50;15.75;;;;;;;3.45;64.23;101926.45;1763103;80;21754;-58
2020/12/03 14:36:39;;;;;;;33.20;17.32;;;;;;;3.43;64.42;101923.42;1760892;80;21188;-60
2020/12/03 14:39:47;;;;;;;33.67;18.17;;;;;;;3.41;64.40;101926.22;1765409;80;21784;-58
2020/12/03 14:42:53;;;;;;;32.17;18.07;;;;;;;3.41;64.53;101918.11;1768283;80;21870;-59